createdAt,value
2022-10-21T00:03:06.382Z,97462.75
2022-10-21T00:13:08.940Z,97449.31
2022-10-21T00:23:11.205Z,97436.91
2022-10-21T00:33:14.075Z,97440.53
2022-10-21T00:43:17.276Z,97431.69
2022-10-21T00:53:20.269Z,97419.47
2022-10-21T01:03:25.714Z,97427.06
2022-10-21T01:13:46.713Z,97422.00
2022-10-21T01:24:26.636Z,97422.78
2022-10-21T01:34:56.906Z,97426.22
2022-10-21T01:45:33.668Z,97409.50
2022-10-21T01:55:37.373Z,97407.50
2022-10-21T02:05:40.833Z,97396.22
2022-10-21T02:15:44.142Z,97399.06
2022-10-21T02:25:50.796Z,97386.06
2022-10-21T02:36:02.904Z,97386.37
2022-10-21T02:46:11.062Z,97396.75
2022-10-21T02:56:13.298Z,97408.84
2022-10-21T03:06:15.882Z,97391.91
2022-10-21T03:26:25.997Z,97397.44
2022-10-21T03:36:28.733Z,97384.94
2022-10-21T03:46:31.308Z,97410.03
2022-10-21T03:56:33.792Z,97398.66
2022-10-21T04:06:36.387Z,97394.00
2022-10-21T04:16:39.168Z,97336.38
2022-10-21T04:26:45.038Z,97344.03
2022-10-21T04:36:47.760Z,97346.81
2022-10-21T04:46:51.079Z,97311.28
2022-10-21T04:56:53.481Z,97320.53
2022-10-21T05:06:55.873Z,97311.37
2022-10-21T05:16:58.138Z,97285.28
2022-10-21T05:27:00.439Z,97334.25
2022-10-21T05:37:02.982Z,97299.50
2022-10-21T05:47:05.454Z,97242.69
2022-10-21T05:57:08.248Z,97272.69
2022-10-21T06:07:11.116Z,97272.50
2022-10-21T06:17:13.627Z,97278.56
2022-10-21T06:27:16.252Z,97279.66
2022-10-21T06:37:20.049Z,97260.31
2022-10-21T06:47:23.607Z,97244.28
2022-10-21T06:57:28.050Z,97244.88
2022-10-21T07:07:30.976Z,97324.47
2022-10-21T07:17:33.501Z,97453.06
2022-10-21T07:27:37.280Z,97436.84
2022-10-21T07:37:42.569Z,97479.16
2022-10-21T07:47:49.229Z,97493.00
2022-10-21T07:57:53.627Z,97508.22
2022-10-21T08:07:59.351Z,97488.06
2022-10-21T08:18:03.354Z,97490.50
2022-10-21T08:28:07.469Z,97487.75
2022-10-21T08:38:11.225Z,97499.75
2022-10-21T08:48:18.999Z,97508.41
2022-10-21T08:58:24.607Z,97533.44
2022-10-21T09:08:36.422Z,97518.81
2022-10-21T09:18:56.147Z,97534.13
2022-10-21T09:29:16.504Z,97535.97
2022-10-21T09:39:35.947Z,97530.56
2022-10-21T09:50:05.950Z,97552.59
2022-10-21T10:00:06.201Z,97541.19
2022-10-21T10:10:32.974Z,97549.00
2022-10-21T10:20:35.950Z,97548.06
2022-10-21T10:30:56.848Z,97565.09
2022-10-21T10:41:11.770Z,97593.22
2022-10-21T10:51:35.979Z,97606.50
2022-10-21T11:01:52.075Z,97598.44
2022-10-21T11:11:57.608Z,97588.78
2022-10-21T11:22:33.110Z,97585.72
2022-10-21T11:33:00.548Z,97583.03
2022-10-21T11:43:23.420Z,97562.31
2022-10-21T11:53:39.275Z,97583.91
2022-10-21T12:04:07.120Z,97580.50
2022-10-21T12:14:35.568Z,97589.53
2022-10-21T12:24:48.866Z,97599.87
2022-10-21T12:34:55.133Z,97595.91
2022-10-21T12:45:00.388Z,97564.53
2022-10-21T12:55:10.222Z,97563.47
2022-10-21T13:05:13.768Z,97537.31
2022-10-21T13:15:22.350Z,97566.44
2022-10-21T13:25:25.323Z,97580.22
2022-10-21T13:35:43.267Z,97558.75
2022-10-21T13:45:50.079Z,97529.94
2022-10-21T13:56:01.394Z,97529.09
2022-10-21T14:06:05.841Z,97514.75
2022-10-21T14:16:10.110Z,97497.22
2022-10-21T14:26:13.536Z,97507.81
2022-10-21T14:36:28.671Z,97521.12
2022-10-21T14:46:39.991Z,97510.63
2022-10-21T14:56:44.906Z,97510.38
2022-10-21T15:07:02.045Z,97496.31
2022-10-21T15:17:10.784Z,97487.59
2022-10-21T15:27:37.126Z,97492.34
2022-10-21T15:37:40.549Z,97483.13
2022-10-21T15:47:43.232Z,97479.31
2022-10-21T15:57:45.935Z,97470.87
2022-10-21T16:07:49.415Z,97460.16
2022-10-21T16:17:55.254Z,97439.31
2022-10-21T16:27:57.986Z,97435.59
2022-10-21T16:38:00.511Z,97420.00
2022-10-21T16:48:06.228Z,97431.81
2022-10-21T16:58:08.987Z,97407.28
2022-10-21T17:08:11.488Z,97404.06
2022-10-21T17:18:15.733Z,97397.03
2022-10-21T17:28:18.597Z,97382.50
2022-10-21T17:38:21.621Z,97382.59
2022-10-21T17:48:26.186Z,97394.50
2022-10-21T17:58:30.134Z,97381.28
2022-10-21T18:08:33.043Z,97368.22
2022-10-21T18:18:37.339Z,97359.75
2022-10-21T18:28:40.053Z,97397.03
2022-10-21T18:38:42.747Z,97402.75
2022-10-21T18:48:45.744Z,97400.31
2022-10-21T18:58:48.814Z,97364.97
2022-10-21T19:08:51.665Z,97379.78
2022-10-21T19:18:55.673Z,97378.97
2022-10-21T19:29:04.456Z,97375.66
2022-10-21T19:39:07.195Z,97480.66
2022-10-21T19:49:12.163Z,97468.44
2022-10-21T19:59:14.938Z,97474.28
2022-10-21T20:09:17.665Z,97501.56
2022-10-21T20:19:20.112Z,97500.56
2022-10-21T20:29:22.575Z,97512.09
2022-10-21T20:39:25.073Z,97494.34
2022-10-21T20:49:27.779Z,97532.88
2022-10-21T20:59:30.531Z,97591.94
2022-10-21T21:09:50.672Z,97564.97
2022-10-21T21:19:55.851Z,97570.59
2022-10-21T21:29:59.280Z,97584.94
2022-10-21T21:40:02.200Z,97612.72
2022-10-21T21:50:05.070Z,97626.88
2022-10-21T22:00:08.797Z,97586.19
2022-10-21T22:10:12.107Z,97622.63
2022-10-21T22:20:14.958Z,97647.09
2022-10-21T22:30:17.951Z,97620.59
2022-10-21T22:40:20.509Z,97621.00
2022-10-21T22:50:23.173Z,97593.09
2022-10-21T23:00:25.589Z,97581.75
2022-10-21T23:10:27.973Z,97561.50
2022-10-21T23:20:30.609Z,97568.94
2022-10-21T23:30:32.884Z,97560.50
2022-10-21T23:40:35.301Z,97559.16
2022-10-21T23:50:42.243Z,97564.88
